Terminal Aerodrome Forecast
Issued by NWS Green Bay, WI

Home | Current Version | Previous Version | Text Only | Print | Product List | Glossary On
Versions: 1 2 3 4 5 6 7 8 9 10 11 12 13 14 15
000
FTUS43 KGRB 241137
TAFGRB
TAF
KGRB 241137Z 2412/2512 17007KT 5SM BR OVC015
      TEMPO 2412/2414 2SM -SHRA BKN009
     FM241400 20011KT 6SM HZ OVC014
     FM241500 21012G18KT P6SM OVC022
     FM242000 23010G16KT P6SM BKN045
     FM242200 26006KT P6SM SCT040 BKN070 PROB30 2422/2504 -SHRA
      BKN025
     FM250400 26004KT P6SM BKN120=

USA.gov is the U.S. government's official web portal to all federal, state and local government web resources and services.